createdAt,value
2015-12-17T00:00:42.718Z,86
2015-12-17T00:01:42.956Z,86
2015-12-17T00:02:43.271Z,86
2015-12-17T00:03:45.008Z,86
2015-12-17T00:04:48.432Z,86
2015-12-17T00:05:45.514Z,86
2015-12-17T00:06:45.719Z,86
2015-12-17T00:07:45.987Z,86
2015-12-17T00:08:49.255Z,86
2015-12-17T00:09:46.462Z,86
2015-12-17T00:10:47.011Z,86
2015-12-17T00:11:47.483Z,86
2015-12-17T00:12:51.064Z,86
2015-12-17T00:13:49.831Z,86
2015-12-17T00:14:50.256Z,86
2015-12-17T00:15:50.791Z,87
2015-12-17T00:17:52.311Z,87
2015-12-17T00:19:53.801Z,87
2015-12-17T00:20:54.585Z,87
2015-12-17T00:22:56.168Z,87
2015-12-17T00:23:57.858Z,87
2015-12-17T00:25:01.643Z,87
2015-12-17T00:25:59.396Z,87
2015-12-17T00:27:00.164Z,87
2015-12-17T00:28:00.948Z,87
2015-12-17T00:29:01.669Z,87
2015-12-17T00:30:02.500Z,87
2015-12-17T00:31:03.145Z,87
2015-12-17T00:32:03.975Z,87
2015-12-17T00:33:04.772Z,87
2015-12-17T00:34:06.478Z,87
2015-12-17T00:35:07.246Z,87
2015-12-17T00:36:08.358Z,87
2015-12-17T00:37:08.768Z,87
2015-12-17T00:38:09.520Z,87
2015-12-17T00:39:13.288Z,87
2015-12-17T00:40:11.260Z,87
2015-12-17T00:41:11.810Z,87
2015-12-17T00:42:12.625Z,87
2015-12-17T00:43:13.377Z,87
2015-12-17T00:44:15.115Z,87
2015-12-17T00:46:16.651Z,87
2015-12-17T00:47:17.716Z,87
2015-12-17T00:48:18.188Z,87
2015-12-17T00:49:18.941Z,87
2015-12-17T00:50:19.710Z,87
2015-12-17T00:51:20.446Z,87
2015-12-17T00:52:21.199Z,87
2015-12-17T00:53:22.030Z,87
2015-12-17T00:54:24.095Z,87
2015-12-17T00:55:24.504Z,87
2015-12-17T00:56:25.287Z,87
2015-12-17T00:57:26.354Z,87
2015-12-17T00:58:26.793Z,87
2015-12-17T00:59:27.531Z,87
2015-12-17T01:00:28.314Z,87
2015-12-17T01:01:29.083Z,87
2015-12-17T01:02:29.820Z,87
2015-12-17T01:03:30.650Z,87
2015-12-17T01:04:32.623Z,87
2015-12-17T01:05:33.126Z,87
2015-12-17T01:06:33.909Z,87
2015-12-17T01:07:34.646Z,87
2015-12-17T01:08:35.398Z,87
2015-12-17T01:09:36.167Z,87
2015-12-17T01:10:36.936Z,87
2015-12-17T01:11:37.673Z,87
2015-12-17T01:12:41.441Z,87
2015-12-17T01:13:42.272Z,86
2015-12-17T01:14:43.993Z,87
2015-12-17T01:16:42.514Z,87
2015-12-17T01:17:46.314Z,87
2015-12-17T01:18:44.269Z,87
2015-12-17T01:20:45.572Z,87
2015-12-17T01:21:46.638Z,87
2015-12-17T01:22:47.078Z,87
2015-12-17T01:23:50.861Z,87
2015-12-17T01:24:49.630Z,87
2015-12-17T01:26:51.464Z,87
2015-12-17T01:27:51.935Z,87
2015-12-17T01:28:52.657Z,87
2015-12-17T01:29:53.659Z,88
2015-12-17T01:31:56.508Z,88
2015-12-17T01:37:03.350Z,88
2015-12-17T01:38:04.899Z,88
2015-12-17T01:39:06.668Z,88
2015-12-17T01:40:08.468Z,88
2015-12-17T01:42:12.004Z,88
2015-12-17T01:43:13.805Z,89
2015-12-17T01:45:17.591Z,89
2015-12-17T01:46:19.672Z,89
2015-12-17T01:47:24.987Z,89
2015-12-17T01:48:24.240Z,89
2015-12-17T01:49:29.602Z,89
2015-12-17T01:50:29.027Z,89
2015-12-17T01:51:31.123Z,89
2015-12-17T01:52:33.454Z,89
2015-12-17T01:53:35.738Z,89
2015-12-17T01:54:38.101Z,89
2015-12-17T01:55:39.806Z,89
2015-12-17T01:56:42.091Z,89
2015-12-17T01:57:40.593Z,89
2015-12-17T01:58:39.002Z,89
2015-12-17T01:59:37.471Z,89
2015-12-17T02:00:35.927Z,90
2015-12-17T02:01:34.601Z,90
2015-12-17T02:02:33.338Z,90
2015-12-17T02:03:35.060Z,90
2015-12-17T02:04:30.797Z,90
2015-12-17T02:05:32.518Z,90
2015-12-17T02:06:31.224Z,90
2015-12-17T02:07:29.945Z,90
2015-12-17T02:08:28.948Z,90
2015-12-17T02:09:27.373Z,90
2015-12-17T02:10:26.048Z,90
2015-12-17T02:11:27.815Z,90
2015-12-17T02:12:23.475Z,90
2015-12-17T02:13:22.182Z,90
2015-12-17T02:14:20.965Z,90
2015-12-17T02:15:22.702Z,90
2015-12-17T02:18:18.789Z,90
2015-12-17T02:19:17.526Z,90
2015-12-17T02:20:16.232Z,90
2015-12-17T02:21:14.906Z,90
2015-12-17T02:23:12.334Z,90
2015-12-17T02:24:11.084Z,90
2015-12-17T02:25:12.808Z,90
2015-12-17T02:26:11.558Z,90
2015-12-17T02:27:10.232Z,90
2015-12-17T02:28:08.985Z,90
2015-12-17T02:29:07.645Z,90
2015-12-17T02:30:09.382Z,90
2015-12-17T02:31:05.087Z,90
2015-12-17T02:32:04.292Z,90
2015-12-17T02:33:03.281Z,90
2015-12-17T02:34:02.267Z,90
2015-12-17T02:35:04.020Z,90
2015-12-17T02:36:02.961Z,90
2015-12-17T02:37:01.932Z,90
2015-12-17T02:38:00.920Z,90
2015-12-17T02:42:55.448Z,90
2015-12-17T02:43:54.467Z,90
2015-12-17T02:44:56.189Z,90
2015-12-17T02:45:55.144Z,90
2015-12-17T02:46:54.131Z,90
2015-12-17T02:47:53.119Z,90
2015-12-17T02:48:52.075Z,90
2015-12-17T02:49:51.312Z,90
2015-12-17T02:51:52.769Z,90
2015-12-17T02:52:48.925Z,90
2015-12-17T02:53:48.195Z,90
2015-12-17T02:54:50.136Z,90
2015-12-17T02:56:51.453Z,90
2015-12-17T02:57:47.612Z,90
2015-12-17T02:59:46.055Z,90
2015-12-17T03:00:45.282Z,90
2015-12-17T03:02:43.655Z,90
2015-12-17T03:03:42.911Z,90
2015-12-17T03:04:44.621Z,90
2015-12-17T03:05:43.854Z,90
2015-12-17T03:07:45.304Z,90
2015-12-17T03:08:41.490Z,90
2015-12-17T03:10:39.942Z,90
2015-12-17T03:11:39.178Z,90
2015-12-17T03:12:38.383Z,90
2015-12-17T03:13:37.649Z,90
2015-12-17T03:14:39.354Z,90
2015-12-17T03:15:38.560Z,90
2015-12-17T03:16:37.780Z,90
2015-12-17T03:17:37.032Z,90
2015-12-17T03:19:38.444Z,90
2015-12-17T03:20:34.662Z,90
2015-12-17T03:21:33.869Z,91
2015-12-17T03:22:33.371Z,91
2015-12-17T03:23:32.888Z,91
2015-12-17T03:24:34.626Z,91
2015-12-17T03:25:34.081Z,91
2015-12-17T03:26:33.568Z,91
2015-12-17T03:27:33.008Z,91
2015-12-17T03:28:32.495Z,91
2015-12-17T03:29:31.998Z,91
2015-12-17T03:30:31.470Z,91
2015-12-17T03:31:30.909Z,91
2015-12-17T03:35:30.873Z,91
2015-12-17T03:36:30.329Z,91
2015-12-17T03:37:29.832Z,91
2015-12-17T03:38:29.539Z,91
2015-12-17T03:39:31.807Z,91
2015-12-17T03:40:28.248Z,91
2015-12-17T03:41:27.734Z,91
2015-12-17T03:42:27.175Z,91
2015-12-17T03:43:31.599Z,91
2015-12-17T03:44:28.181Z,91
2015-12-17T03:46:26.857Z,91
2015-12-17T03:47:25.672Z,91
2015-12-17T03:48:25.816Z,91
2015-12-17T03:49:25.022Z,91
2015-12-17T03:50:24.509Z,91
2015-12-17T03:51:23.965Z,91
2015-12-17T03:52:23.200Z,91
2015-12-17T03:53:22.093Z,91
2015-12-17T03:54:24.189Z,91
2015-12-17T03:55:23.692Z,91
2015-12-17T03:56:22.913Z,91
2015-12-17T03:57:22.354Z,91
2015-12-17T03:58:21.841Z,91
2015-12-17T03:59:21.578Z,91
2015-12-17T04:00:24.050Z,91
2015-12-17T04:01:20.567Z,91
2015-12-17T04:02:22.977Z,91
2015-12-17T04:03:19.542Z,91
2015-12-17T04:04:27.248Z,91
2015-12-17T04:05:20.688Z,91
2015-12-17T04:06:20.175Z,91
2015-12-17T04:07:19.678Z,91
2015-12-17T04:08:19.352Z,91
2015-12-17T04:09:18.590Z,91
2015-12-17T04:10:18.061Z,91
2015-12-17T04:11:17.548Z,91
2015-12-17T04:12:17.270Z,91
2015-12-17T04:13:16.773Z,91
2015-12-17T04:14:18.541Z,91
2015-12-17T04:15:20.997Z,91
2015-12-17T04:16:17.468Z,91
2015-12-17T04:17:17.190Z,91
2015-12-17T04:19:16.664Z,91
2015-12-17T04:20:19.370Z,91
2015-12-17T04:21:17.560Z,91
2015-12-17T04:23:15.644Z,91
2015-12-17T04:24:17.334Z,91
2015-12-17T04:25:17.055Z,91
2015-12-17T04:26:17.074Z,91
2015-12-17T04:27:16.530Z,91
2015-12-17T04:28:16.298Z,91
2015-12-17T04:29:16.005Z,91
2015-12-17T04:30:15.723Z,91
2015-12-17T04:31:15.430Z,91
2015-12-17T04:32:15.369Z,91
2015-12-17T04:33:14.996Z,91
2015-12-17T04:34:16.672Z,91
2015-12-17T04:36:19.146Z,91
2015-12-17T04:37:18.883Z,91
2015-12-17T04:38:16.995Z,91
2015-12-17T04:40:15.330Z,92
2015-12-17T04:41:15.300Z,92
2015-12-17T04:42:15.319Z,92
2015-12-17T04:43:15.321Z,92
2015-12-17T04:45:17.296Z,92
2015-12-17T04:46:17.533Z,92
2015-12-17T04:47:20.974Z,92
2015-12-17T04:48:18.007Z,92
2015-12-17T04:49:18.229Z,92
2015-12-17T04:50:21.481Z,92
2015-12-17T04:52:21.971Z,92
2015-12-17T04:53:19.255Z,92
2015-12-17T04:54:24.024Z,92
2015-12-17T04:55:21.245Z,92
2015-12-17T04:56:21.513Z,92
2015-12-17T04:58:21.941Z,92
2015-12-17T05:00:22.415Z,92
2015-12-17T05:01:22.652Z,92
2015-12-17T05:02:22.921Z,92
2015-12-17T05:03:23.205Z,92
2015-12-17T05:04:24.941Z,92
2015-12-17T05:05:30.319Z,92
2015-12-17T05:06:25.432Z,92
2015-12-17T05:07:25.637Z,92
2015-12-17T05:08:25.906Z,92
2015-12-17T05:09:29.143Z,92
2015-12-17T05:10:29.412Z,92
2015-12-17T05:11:26.617Z,92
2015-12-17T05:12:26.854Z,92
2015-12-17T05:13:27.154Z,92
2015-12-17T05:14:29.141Z,92
2015-12-17T05:15:29.096Z,92
2015-12-17T05:16:29.318Z,92
2015-12-17T05:17:29.556Z,92
2015-12-17T05:18:29.793Z,92
2015-12-17T05:19:30.045Z,92
2015-12-17T05:20:30.314Z,92
2015-12-17T05:21:30.520Z,92
2015-12-17T05:22:30.740Z,92
2015-12-17T05:23:31.072Z,92
2015-12-17T05:24:32.778Z,92
2015-12-17T05:27:33.490Z,92
2015-12-17T05:29:34.276Z,92
2015-12-17T05:30:34.200Z,92
2015-12-17T05:31:34.875Z,92
2015-12-17T05:32:34.675Z,92
2015-12-17T05:33:38.020Z,92
2015-12-17T05:35:36.948Z,92
2015-12-17T05:36:40.170Z,92
2015-12-17T05:37:37.451Z,92
2015-12-17T05:39:37.926Z,92
2015-12-17T05:40:41.147Z,92
2015-12-17T05:41:38.435Z,92
2015-12-17T05:42:38.615Z,92
2015-12-17T05:43:39.149Z,92
2015-12-17T05:44:41.014Z,92
2015-12-17T05:45:40.897Z,92
2015-12-17T05:46:44.103Z,92
2015-12-17T05:47:44.387Z,92
2015-12-17T05:48:41.671Z,92
2015-12-17T05:49:44.846Z,92
2015-12-17T05:50:42.067Z,92
2015-12-17T05:51:42.288Z,92
2015-12-17T05:52:42.525Z,92
2015-12-17T05:53:42.872Z,92
2015-12-17T05:54:44.906Z,92
2015-12-17T05:55:44.752Z,92
2015-12-17T05:56:45.053Z,92
2015-12-17T05:57:45.258Z,92
2015-12-17T05:58:45.496Z,92
2015-12-17T05:59:45.779Z,92
2015-12-17T06:00:48.985Z,92
2015-12-17T06:01:46.222Z,92
2015-12-17T06:02:46.444Z,92
2015-12-17T06:03:46.760Z,92
2015-12-17T06:05:48.734Z,92
2015-12-17T06:06:48.939Z,92
2015-12-17T06:08:49.414Z,92
2015-12-17T06:11:50.124Z,92
2015-12-17T06:13:50.677Z,92
2015-12-17T06:15:52.667Z,92
2015-12-17T06:16:55.874Z,92
2015-12-17T06:17:53.094Z,92
2015-12-17T06:18:53.379Z,92
2015-12-17T06:19:53.584Z,92
2015-12-17T06:21:54.090Z,92
2015-12-17T06:22:54.295Z,92
2015-12-17T06:23:54.595Z,92
2015-12-17T06:24:56.317Z,92
2015-12-17T06:25:59.570Z,92
2015-12-17T06:26:56.807Z,92
2015-12-17T06:27:57.013Z,92
2015-12-17T06:28:57.265Z,92
2015-12-17T06:29:57.518Z,92
2015-12-17T06:30:59.865Z,92
2015-12-17T06:31:58.179Z,92
2015-12-17T06:32:58.229Z,92
2015-12-17T06:33:58.512Z,92
2015-12-17T06:35:00.265Z,92
2015-12-17T06:36:00.503Z,92
2015-12-17T06:37:01.021Z,92
2015-12-17T06:38:03.946Z,92
2015-12-17T06:39:01.181Z,92
2015-12-17T06:40:01.480Z,92
2015-12-17T06:42:02.220Z,92
2015-12-17T06:43:02.176Z,92
2015-12-17T06:44:02.428Z,92
2015-12-17T06:45:04.120Z,92
2015-12-17T06:46:04.623Z,92
2015-12-17T06:47:05.125Z,92
2015-12-17T06:48:05.611Z,92
2015-12-17T06:49:06.099Z,92
2015-12-17T06:51:07.417Z,92
2015-12-17T06:52:07.326Z,92
2015-12-17T06:53:07.828Z,92
2015-12-17T06:54:11.612Z,92
2015-12-17T06:56:10.852Z,92
2015-12-17T06:57:14.074Z,92
2015-12-17T06:58:11.576Z,92
2015-12-17T06:59:15.095Z,92
2015-12-17T07:00:12.550Z,92
2015-12-17T07:02:13.572Z,92
2015-12-17T07:03:14.075Z,92
2015-12-17T07:05:16.300Z,92
2015-12-17T07:06:16.802Z,92
2015-12-17T07:07:20.304Z,92
2015-12-17T07:08:20.854Z,92
2015-12-17T07:09:18.278Z,92
2015-12-17T07:10:18.797Z,92
2015-12-17T07:12:19.772Z,92
2015-12-17T07:14:21.059Z,92
2015-12-17T07:15:22.780Z,92
2015-12-17T07:16:23.266Z,92
2015-12-17T07:17:23.769Z,92
2015-12-17T07:18:24.335Z,92
2015-12-17T07:19:24.806Z,92
2015-12-17T07:20:24.981Z,92
2015-12-17T07:21:28.484Z,92
2015-12-17T07:22:25.986Z,92
2015-12-17T07:23:26.505Z,92
2015-12-17T07:24:27.023Z,92
2015-12-17T07:25:28.745Z,93
2015-12-17T07:26:29.264Z,92
2015-12-17T07:27:29.470Z,93
2015-12-17T07:28:30.003Z,93
2015-12-17T07:29:30.491Z,92
2015-12-17T07:30:30.758Z,92
2015-12-17T07:31:30.949Z,92
2015-12-17T07:32:31.186Z,92
2015-12-17T07:33:31.438Z,92
2015-12-17T07:34:31.785Z,92
2015-12-17T07:35:33.460Z,92
2015-12-17T07:36:33.680Z,92
2015-12-17T07:37:33.933Z,92
2015-12-17T07:38:37.140Z,93
2015-12-17T07:39:34.924Z,92
2015-12-17T07:40:34.880Z,93
2015-12-17T07:41:35.383Z,93
2015-12-17T07:42:35.885Z,93
2015-12-17T07:43:36.341Z,93
2015-12-17T07:44:36.922Z,93
2015-12-17T07:45:38.613Z,93
2015-12-17T07:46:39.115Z,93
2015-12-17T07:47:39.618Z,93
2015-12-17T07:48:40.370Z,93
2015-12-17T07:49:40.841Z,93
2015-12-17T07:50:41.329Z,93
2015-12-17T07:51:41.863Z,93
2015-12-17T07:54:47.090Z,93
2015-12-17T07:56:47.764Z,93
2015-12-17T07:58:47.879Z,93
2015-12-17T07:59:48.616Z,93
2015-12-17T08:00:49.338Z,93
2015-12-17T08:02:50.848Z,93
2015-12-17T08:03:51.851Z,93
2015-12-17T08:04:52.370Z,93
2015-12-17T08:05:54.090Z,93
2015-12-17T08:06:54.860Z,93
2015-12-17T08:07:55.613Z,93
2015-12-17T08:08:56.365Z,93
2015-12-17T08:09:57.117Z,93
2015-12-17T08:10:57.854Z,93
2015-12-17T08:11:58.576Z,93
2015-12-17T08:13:02.548Z,93
2015-12-17T08:14:00.113Z,93
2015-12-17T08:15:00.648Z,93
2015-12-17T08:16:05.353Z,93
2015-12-17T08:17:02.840Z,93
2015-12-17T08:18:09.609Z,93
2015-12-17T08:19:04.112Z,93
2015-12-17T08:20:04.614Z,93
2015-12-17T08:21:05.069Z,93
2015-12-17T08:22:05.556Z,93
2015-12-17T08:23:06.044Z,93
2015-12-17T08:24:06.531Z,93
2015-12-17T08:25:07.346Z,93
2015-12-17T08:26:09.067Z,93
2015-12-17T08:27:09.806Z,93
2015-12-17T08:28:10.589Z,93
2015-12-17T08:29:11.342Z,93
2015-12-17T08:30:12.095Z,93
2015-12-17T08:31:12.831Z,93
2015-12-17T08:32:13.866Z,93
2015-12-17T08:33:14.353Z,93
2015-12-17T08:34:15.090Z,93
2015-12-17T08:35:15.889Z,93
2015-12-17T08:36:17.627Z,93
2015-12-17T08:37:18.333Z,93
2015-12-17T08:38:19.133Z,93
2015-12-17T08:39:19.822Z,93
2015-12-17T08:40:20.623Z,93
2015-12-17T08:41:21.359Z,93
2015-12-17T08:42:28.097Z,93
2015-12-17T08:43:22.850Z,93
2015-12-17T08:44:23.586Z,93
2015-12-17T08:45:24.434Z,93
2015-12-17T08:46:26.108Z,93
2015-12-17T08:47:26.876Z,93
2015-12-17T08:48:27.613Z,93
2015-12-17T08:49:28.334Z,93
2015-12-17T08:51:29.825Z,93
2015-12-17T08:52:30.593Z,93
2015-12-17T08:53:31.533Z,93
2015-12-17T08:54:32.067Z,93
2015-12-17T08:55:32.617Z,93
2015-12-17T08:56:37.369Z,93
2015-12-17T08:57:34.842Z,92
2015-12-17T08:59:35.330Z,92
2015-12-17T09:01:35.774Z,93
2015-12-17T09:02:36.308Z,92
2015-12-17T09:03:36.513Z,92
2015-12-17T09:04:36.751Z,92
2015-12-17T09:05:37.066Z,92
2015-12-17T09:07:39.025Z,92
2015-12-17T09:08:39.247Z,92
2015-12-17T09:09:39.452Z,92
2015-12-17T09:10:39.689Z,92
2015-12-17T09:11:39.957Z,92
2015-12-17T09:12:40.147Z,92
2015-12-17T09:13:43.166Z,92
2015-12-17T09:14:40.091Z,92
2015-12-17T09:15:43.188Z,92
2015-12-17T09:16:42.174Z,92
2015-12-17T09:17:41.612Z,92
2015-12-17T09:18:41.302Z,92
2015-12-17T09:19:41.008Z,92
2015-12-17T09:20:40.730Z,92
2015-12-17T09:21:43.686Z,92
2015-12-17T09:22:40.203Z,92
2015-12-17T09:23:39.878Z,92
2015-12-17T09:25:39.384Z,92
2015-12-17T09:26:41.105Z,92
2015-12-17T09:27:40.843Z,92
2015-12-17T09:28:41.971Z,92
2015-12-17T09:29:40.254Z,91
2015-12-17T09:30:40.007Z,92
2015-12-17T09:31:39.760Z,92
2015-12-17T09:32:39.169Z,91
2015-12-17T09:33:38.609Z,91
2015-12-17T09:34:37.847Z,91
2015-12-17T09:35:37.348Z,91
2015-12-17T09:36:39.102Z,91
2015-12-17T09:37:38.307Z,91
2015-12-17T09:38:37.482Z,91
2015-12-17T09:39:36.688Z,91
2015-12-17T09:40:35.894Z,91
2015-12-17T09:41:35.099Z,91
2015-12-17T09:42:34.321Z,91
2015-12-17T09:44:32.748Z,91
2015-12-17T09:45:31.985Z,91
2015-12-17T09:47:32.662Z,91
2015-12-17T09:48:31.854Z,91
2015-12-17T09:49:31.059Z,91
2015-12-17T09:50:30.015Z,91
2015-12-17T09:51:29.249Z,91
2015-12-17T09:52:28.423Z,91
2015-12-17T09:53:27.364Z,91
2015-12-17T09:55:25.854Z,91
2015-12-17T09:56:27.560Z,91
2015-12-17T09:57:26.750Z,91
2015-12-17T09:58:26.206Z,91
2015-12-17T09:59:24.896Z,91
2015-12-17T10:00:23.868Z,91
2015-12-17T10:01:22.839Z,91
2015-12-17T10:02:21.765Z,91
2015-12-17T10:03:23.704Z,90
2015-12-17T10:04:19.379Z,91
2015-12-17T10:05:18.445Z,91
2015-12-17T10:06:20.119Z,91
2015-12-17T10:07:19.059Z,90
2015-12-17T10:08:17.781Z,90
2015-12-17T10:09:16.439Z,90
2015-12-17T10:10:15.131Z,90
2015-12-17T10:11:13.836Z,90
2015-12-17T10:12:12.526Z,90
2015-12-17T10:13:11.201Z,90
2015-12-17T10:14:09.923Z,90
2015-12-17T10:15:11.987Z,90
2015-12-17T10:16:13.725Z,90
2015-12-17T10:17:15.945Z,90
2015-12-17T10:18:18.293Z,90
2015-12-17T10:19:16.687Z,90
2015-12-17T10:20:18.954Z,90
2015-12-17T10:21:21.270Z,89
2015-12-17T10:22:23.256Z,90
2015-12-17T10:23:25.541Z,89
2015-12-17T10:24:27.590Z,89
2015-12-17T10:25:29.672Z,89
2015-12-17T10:26:31.392Z,89
2015-12-17T10:27:33.395Z,89
2015-12-17T10:29:39.964Z,89
2015-12-17T10:31:40.720Z,89
2015-12-17T10:32:42.487Z,89
2015-12-17T10:33:44.287Z,89
2015-12-17T10:34:46.025Z,89
2015-12-17T10:35:47.870Z,89
2015-12-17T10:36:49.842Z,89
2015-12-17T10:37:51.345Z,89
2015-12-17T10:38:53.333Z,89
2015-12-17T10:39:54.851Z,89
2015-12-17T10:40:56.916Z,89
2015-12-17T10:42:59.937Z,89
2015-12-17T10:44:01.689Z,89
2015-12-17T10:45:02.489Z,89
2015-12-17T10:46:07.492Z,89
2015-12-17T10:47:06.198Z,88
2015-12-17T10:49:11.985Z,89
2015-12-17T10:50:10.519Z,89
2015-12-17T10:51:11.975Z,89
2015-12-17T10:52:13.758Z,89
2015-12-17T10:53:15.042Z,88
2015-12-17T10:54:16.328Z,88
2015-12-17T10:55:17.533Z,88
2015-12-17T10:56:18.833Z,88
2015-12-17T10:57:20.553Z,88
2015-12-17T10:58:22.010Z,88
2015-12-17T10:59:22.793Z,88
2015-12-17T11:00:23.811Z,88
2015-12-17T11:03:27.069Z,88
2015-12-17T11:04:28.322Z,88
2015-12-17T11:05:29.544Z,88
2015-12-17T11:06:30.891Z,88
2015-12-17T11:07:32.597Z,88
2015-12-17T11:08:33.818Z,88
2015-12-17T11:09:35.071Z,88
2015-12-17T11:10:36.355Z,88
2015-12-17T11:11:37.592Z,88
2015-12-17T11:12:38.877Z,88
2015-12-17T11:13:40.114Z,88
2015-12-17T11:14:44.350Z,88
2015-12-17T11:15:42.619Z,88
2015-12-17T11:16:43.902Z,88
2015-12-17T11:18:46.908Z,88
2015-12-17T11:19:48.177Z,88
2015-12-17T11:20:49.383Z,88
2015-12-17T11:21:50.666Z,88
2015-12-17T11:22:52.091Z,88
2015-12-17T11:23:53.188Z,88
2015-12-17T11:24:54.394Z,88
2015-12-17T11:25:55.647Z,88
2015-12-17T11:26:57.165Z,88
2015-12-17T11:27:58.715Z,88
2015-12-17T11:28:59.967Z,88
2015-12-17T11:30:01.174Z,88
2015-12-17T11:31:02.457Z,88
2015-12-17T11:32:03.679Z,88
2015-12-17T11:34:06.216Z,88
2015-12-17T11:35:10.484Z,88
2015-12-17T11:36:08.689Z,88
2015-12-17T11:37:10.005Z,88
2015-12-17T11:38:11.726Z,88
2015-12-17T11:39:13.182Z,88
2015-12-17T11:41:15.500Z,88
2015-12-17T11:42:16.753Z,88
2015-12-17T11:43:18.006Z,88
2015-12-17T11:44:19.243Z,88
2015-12-17T11:45:20.495Z,88
2015-12-17T11:46:21.765Z,88
2015-12-17T11:47:23.079Z,88
2015-12-17T11:48:24.816Z,88
2015-12-17T11:49:26.037Z,88
2015-12-17T11:50:27.291Z,89
2015-12-17T11:51:28.810Z,89
2015-12-17T11:52:30.656Z,89
2015-12-17T11:53:36.940Z,88
2015-12-17T11:54:33.067Z,88
2015-12-17T11:55:34.351Z,88
2015-12-17T11:56:35.588Z,88
2015-12-17T11:57:36.887Z,88
2015-12-17T11:58:38.640Z,88
2015-12-17T11:59:39.863Z,88
2015-12-17T12:00:41.098Z,89
2015-12-17T12:01:42.648Z,88
2015-12-17T12:02:43.886Z,88
2015-12-17T12:03:45.139Z,89
2015-12-17T12:04:46.970Z,89
2015-12-17T12:05:48.452Z,88
2015-12-17T12:07:50.683Z,88
2015-12-17T12:08:52.377Z,88
2015-12-17T12:09:53.617Z,88
2015-12-17T12:10:54.893Z,88
2015-12-17T12:11:56.110Z,88
2015-12-17T12:12:57.358Z,88
2015-12-17T12:14:01.607Z,88
2015-12-17T12:14:59.855Z,88
2015-12-17T12:16:01.106Z,88
2015-12-17T12:17:02.403Z,88
2015-12-17T12:18:03.702Z,88
2015-12-17T12:19:05.406Z,88
2015-12-17T12:20:06.657Z,88
2015-12-17T12:21:07.895Z,88
2015-12-17T12:22:09.349Z,88
2015-12-17T12:23:13.399Z,88
2015-12-17T12:24:11.682Z,88
2015-12-17T12:25:12.888Z,88
2015-12-17T12:26:14.156Z,88
2015-12-17T12:27:15.393Z,88
2015-12-17T12:28:16.706Z,88
2015-12-17T12:29:18.616Z,88
2015-12-17T12:30:19.696Z,88
2015-12-17T12:31:23.980Z,88
2015-12-17T12:32:22.202Z,88
2015-12-17T12:33:26.438Z,88
2015-12-17T12:34:24.707Z,89
2015-12-17T12:35:26.194Z,89
2015-12-17T12:36:27.963Z,89
2015-12-17T12:37:29.716Z,90
2015-12-17T12:38:32.374Z,90
2015-12-17T12:39:33.768Z,90
2015-12-17T12:40:35.443Z,91
2015-12-17T12:41:30.914Z,91
2015-12-17T12:47:23.287Z,91
2015-12-17T12:48:25.305Z,91
2015-12-17T12:49:24.011Z,91
2015-12-17T12:50:25.982Z,91
2015-12-17T12:52:20.629Z,91
2015-12-17T12:54:18.009Z,91
2015-12-17T12:55:16.231Z,91
2015-12-17T12:56:15.359Z,91
2015-12-17T12:57:14.049Z,91
2015-12-17T12:58:12.802Z,91
2015-12-17T12:59:14.538Z,91
2015-12-17T13:00:13.213Z,91
2015-12-17T13:01:11.896Z,91
2015-12-17T13:02:10.883Z,91
2015-12-17T13:03:09.479Z,91
2015-12-17T13:04:07.998Z,91
2015-12-17T13:05:06.860Z,91
2015-12-17T13:06:05.657Z,91
2015-12-17T13:07:04.051Z,91
2015-12-17T13:08:03.132Z,91
2015-12-17T13:09:04.524Z,90
2015-12-17T13:10:02.933Z,90
2015-12-17T13:11:01.420Z,90
2015-12-17T13:11:59.829Z,90
2015-12-17T13:12:58.300Z,90
2015-12-17T13:13:56.725Z,90
2015-12-17T13:14:55.150Z,90
2015-12-17T13:15:53.559Z,90
2015-12-17T13:16:55.828Z,90
2015-12-17T13:17:58.190Z,90
2015-12-17T13:18:59.881Z,90
2015-12-17T13:20:02.148Z,90
2015-12-17T13:21:04.432Z,90
2015-12-17T13:22:06.748Z,90
2015-12-17T13:23:08.984Z,90
2015-12-17T13:24:11.284Z,90
2015-12-17T13:25:13.568Z,90
2015-12-17T13:26:15.884Z,90
2015-12-17T13:27:18.120Z,90
2015-12-17T13:28:20.498Z,90
2015-12-17T13:29:22.173Z,90
2015-12-17T13:31:29.492Z,90
2015-12-17T13:32:31.759Z,89
2015-12-17T13:33:30.794Z,89
2015-12-17T13:34:32.797Z,89
2015-12-17T13:35:37.846Z,89
2015-12-17T13:36:36.864Z,89
2015-12-17T13:37:38.867Z,89
2015-12-17T13:38:40.511Z,89
2015-12-17T13:39:42.669Z,89
2015-12-17T13:40:44.688Z,89
2015-12-17T13:41:46.722Z,89
2015-12-17T13:42:48.740Z,89
2015-12-17T13:43:50.743Z,89
2015-12-17T13:44:52.762Z,89
2015-12-17T13:45:54.562Z,89
2015-12-17T13:46:56.298Z,89
2015-12-17T13:47:58.050Z,89
2015-12-17T13:48:59.866Z,89
2015-12-17T13:50:01.619Z,89
2015-12-17T13:51:03.356Z,89
2015-12-17T13:52:05.172Z,89
2015-12-17T13:53:07.174Z,89
2015-12-17T13:54:08.678Z,89
2015-12-17T13:55:10.430Z,89
2015-12-17T13:56:12.183Z,89
2015-12-17T13:57:13.983Z,89
2015-12-17T13:58:15.970Z,89
2015-12-17T13:59:17.831Z,89
2015-12-17T14:00:19.303Z,89
2015-12-17T14:01:21.024Z,89
2015-12-17T14:02:22.778Z,89
2015-12-17T14:03:24.545Z,89
2015-12-17T14:05:31.097Z,89
2015-12-17T14:06:40.136Z,89
2015-12-17T14:07:31.636Z,89
2015-12-17T14:08:33.372Z,89
2015-12-17T14:09:35.484Z,89
2015-12-17T14:10:36.924Z,89
2015-12-17T14:11:41.881Z,89
2015-12-17T14:12:40.445Z,89
2015-12-17T14:13:42.230Z,89
2015-12-17T14:14:44.264Z,89
2015-12-17T14:15:47.861Z,89
2015-12-17T14:17:49.413Z,89
2015-12-17T14:18:51.041Z,89
2015-12-17T14:19:52.856Z,89
2015-12-17T14:21:56.111Z,89
2015-12-17T14:22:57.614Z,89
2015-12-17T14:23:59.133Z,89
2015-12-17T14:26:02.638Z,89
2015-12-17T14:27:04.671Z,89
2015-12-17T14:28:06.161Z,89
2015-12-17T14:29:10.946Z,89
2015-12-17T14:30:09.260Z,89
2015-12-17T14:32:12.485Z,89
2015-12-17T14:33:13.988Z,89
2015-12-17T14:34:15.755Z,89
2015-12-17T14:35:17.228Z,88
2015-12-17T14:36:18.558Z,89
2015-12-17T14:37:19.764Z,89
2015-12-17T14:38:21.282Z,89
2015-12-17T14:40:24.101Z,89
2015-12-17T14:41:25.807Z,89
2015-12-17T14:42:27.325Z,88
2015-12-17T14:43:28.577Z,88
2015-12-17T14:44:29.830Z,88
2015-12-17T14:45:31.082Z,89
2015-12-17T14:46:32.585Z,89
2015-12-17T14:47:34.104Z,89
2015-12-17T14:48:38.638Z,88
2015-12-17T14:49:36.876Z,88
2015-12-17T14:50:38.174Z,88
2015-12-17T14:51:39.896Z,88
2015-12-17T14:52:41.149Z,88
2015-12-17T14:53:42.387Z,88
2015-12-17T14:54:46.608Z,88
2015-12-17T14:55:47.923Z,89
2015-12-17T14:56:46.410Z,89
2015-12-17T14:57:48.225Z,89
2015-12-17T14:59:50.935Z,88
2015-12-17T15:00:52.265Z,89
2015-12-17T15:01:54.221Z,89
2015-12-17T15:02:55.520Z,88
2015-12-17T15:03:56.726Z,89
2015-12-17T15:04:58.229Z,89
2015-12-17T15:05:59.748Z,89
2015-12-17T15:07:01.251Z,89
2015-12-17T15:08:02.784Z,89
2015-12-17T15:10:06.102Z,88
2015-12-17T15:13:10.329Z,89
2015-12-17T15:14:11.816Z,89
2015-12-17T15:16:14.837Z,89
2015-12-17T15:17:16.355Z,88
2015-12-17T15:18:17.906Z,88
2015-12-17T15:19:18.861Z,88
2015-12-17T15:20:20.115Z,89
2015-12-17T15:21:24.695Z,89
2015-12-17T15:22:23.401Z,89
2015-12-17T15:23:24.888Z,89
2015-12-17T15:24:29.406Z,89
2015-12-17T15:25:27.925Z,89
2015-12-17T15:26:29.427Z,89
2015-12-17T15:27:30.931Z,88
2015-12-17T15:29:33.279Z,89
2015-12-17T15:32:38.695Z,89
2015-12-17T15:33:39.994Z,89
2015-12-17T15:34:41.512Z,88
2015-12-17T15:35:42.765Z,89
2015-12-17T15:36:44.268Z,89
2015-12-17T15:37:45.787Z,89
2015-12-17T15:38:47.304Z,89
2015-12-17T15:39:48.792Z,89
2015-12-17T15:40:50.310Z,88
2015-12-17T15:42:53.315Z,88
2015-12-17T15:43:57.583Z,88
2015-12-17T15:44:55.837Z,88
2015-12-17T15:46:00.089Z,88
2015-12-17T15:46:58.342Z,88
2015-12-17T15:49:01.082Z,89
2015-12-17T15:50:02.584Z,88
2015-12-17T15:51:03.837Z,88
2015-12-17T15:52:05.153Z,88
2015-12-17T15:53:06.875Z,89
2015-12-17T15:54:08.377Z,89
2015-12-17T15:55:09.879Z,88
2015-12-17T15:56:11.132Z,89
2015-12-17T15:57:12.947Z,88
2015-12-17T15:58:13.888Z,88
2015-12-17T15:59:15.406Z,88
2015-12-17T16:00:16.722Z,88
2015-12-17T16:01:17.646Z,88
2015-12-17T16:02:21.977Z,88
2015-12-17T16:03:20.245Z,88
2015-12-17T16:04:21.919Z,88
2015-12-17T16:05:23.172Z,88
2015-12-17T16:06:27.628Z,88
2015-12-17T16:07:25.662Z,88
2015-12-17T16:09:31.199Z,88
2015-12-17T16:10:29.436Z,88
2015-12-17T16:11:30.876Z,88
2015-12-17T16:12:32.005Z,88